sensor_id;sensor_type;location;lat;lon;timestamp;P1;durP1;ratioP1;P2;durP2;ratioP2
58466;SDS011;44255;49.244;7.726;2022-07-03T03:32:49;4.32;;;1.63;;
58466;SDS011;44255;49.244;7.726;2022-07-03T03:35:14;2.70;;;1.70;;
58466;SDS011;44255;49.244;7.726;2022-07-03T03:37:40;4.57;;;1.55;;
58466;SDS011;44255;49.244;7.726;2022-07-03T03:40:06;3.58;;;1.50;;
58466;SDS011;44255;49.244;7.726;2022-07-03T03:42:32;2.35;;;1.27;;
58466;SDS011;44255;49.244;7.726;2022-07-03T03:44:57;5.27;;;1.80;;
58466;SDS011;44255;49.244;7.726;2022-07-03T03:47:23;1.40;;;1.27;;
58466;SDS011;44255;49.244;7.726;2022-07-03T03:49:49;4.40;;;1.50;;
58466;SDS011;44255;49.244;7.726;2022-07-03T03:52:14;2.27;;;1.20;;
58466;SDS011;44255;49.244;7.726;2022-07-03T03:54:39;2.50;;;1.60;;
58466;SDS011;44255;49.244;7.726;2022-07-03T03:57:21;1.50;;;1.30;;
58466;SDS011;44255;49.244;7.726;2022-07-03T03:59:47;3.90;;;1.63;;
58466;SDS011;44255;49.244;7.726;2022-07-03T04:02:13;3.17;;;1.33;;
58466;SDS011;44255;49.244;7.726;2022-07-03T04:07:05;2.97;;;1.42;;
58466;SDS011;44255;49.244;7.726;2022-07-03T04:09:30;3.87;;;1.50;;
58466;SDS011;44255;49.244;7.726;2022-07-03T04:11:56;2.00;;;1.30;;
58466;SDS011;44255;49.244;7.726;2022-07-03T04:14:21;2.33;;;1.60;;
58466;SDS011;44255;49.244;7.726;2022-07-03T04:16:46;4.93;;;1.60;;
58466;SDS011;44255;49.244;7.726;2022-07-03T04:19:12;2.20;;;1.30;;
58466;SDS011;44255;49.244;7.726;2022-07-03T04:21:37;2.93;;;1.40;;
58466;SDS011;44255;49.244;7.726;2022-07-03T04:24:02;3.27;;;1.50;;
58466;SDS011;44255;49.244;7.726;2022-07-03T04:26:28;2.65;;;1.63;;
58466;SDS011;44255;49.244;7.726;2022-07-03T04:28:53;4.37;;;1.67;;
58466;SDS011;44255;49.244;7.726;2022-07-03T04:31:18;2.93;;;1.50;;
58466;SDS011;44255;49.244;7.726;2022-07-03T04:33:44;4.40;;;1.73;;
58466;SDS011;44255;49.244;7.726;2022-07-03T04:36:09;3.03;;;1.50;;
58466;SDS011;44255;49.244;7.726;2022-07-03T04:38:34;1.83;;;1.60;;
58466;SDS011;44255;49.244;7.726;2022-07-03T04:41:00;3.70;;;1.57;;
58466;SDS011;44255;49.244;7.726;2022-07-03T04:43:25;2.67;;;1.50;;
58466;SDS011;44255;49.244;7.726;2022-07-03T04:45:50;2.90;;;2.07;;
58466;SDS011;44255;49.244;7.726;2022-07-03T04:48:15;3.07;;;1.63;;
58466;SDS011;44255;49.244;7.726;2022-07-03T04:50:41;2.03;;;1.50;;
58466;SDS011;44255;49.244;7.726;2022-07-03T04:53:06;3.30;;;1.80;;
58466;SDS011;44255;49.244;7.726;2022-07-03T04:55:31;2.70;;;1.80;;
58466;SDS011;44255;49.244;7.726;2022-07-03T04:57:56;2.27;;;2.00;;
58466;SDS011;44255;49.244;7.726;2022-07-03T05:00:22;2.33;;;1.80;;
58466;SDS011;44255;49.244;7.726;2022-07-03T05:02:47;3.47;;;1.63;;
58466;SDS011;44255;49.244;7.726;2022-07-03T05:05:12;10.07;;;2.13;;
58466;SDS011;44255;49.244;7.726;2022-07-03T05:07:37;2.70;;;1.57;;
58466;SDS011;44255;49.244;7.726;2022-07-03T05:10:03;3.50;;;1.90;;
58466;SDS011;44255;49.244;7.726;2022-07-03T05:12:29;2.40;;;1.67;;
58466;SDS011;44255;49.244;7.726;2022-07-03T05:14:54;5.07;;;1.80;;
58466;SDS011;44255;49.244;7.726;2022-07-03T05:17:19;2.83;;;1.90;;
58466;SDS011;44255;49.244;7.726;2022-07-03T05:19:45;3.70;;;1.67;;
58466;SDS011;44255;49.244;7.726;2022-07-03T05:22:10;2.72;;;1.80;;
58466;SDS011;44255;49.244;7.726;2022-07-03T05:24:35;2.33;;;1.60;;
58466;SDS011;44255;49.244;7.726;2022-07-03T05:27:01;3.72;;;1.67;;
58466;SDS011;44255;49.244;7.726;2022-07-03T05:29:26;5.82;;;2.03;;
58466;SDS011;44255;49.244;7.726;2022-07-03T05:31:52;2.60;;;1.70;;
58466;SDS011;44255;49.244;7.726;2022-07-03T05:34:17;2.67;;;1.77;;
58466;SDS011;44255;49.244;7.726;2022-07-03T05:36:42;4.63;;;1.67;;
58466;SDS011;44255;49.244;7.726;2022-07-03T05:39:08;2.07;;;1.60;;
58466;SDS011;44255;49.244;7.726;2022-07-03T05:41:52;2.53;;;1.60;;
58466;SDS011;44255;49.244;7.726;2022-07-03T05:44:17;1.70;;;1.60;;
58466;SDS011;44255;49.244;7.726;2022-07-03T05:46:42;2.93;;;1.70;;
58466;SDS011;44255;49.244;7.726;2022-07-03T05:49:08;2.63;;;1.47;;
58466;SDS011;44255;49.244;7.726;2022-07-03T05:51:33;2.30;;;1.40;;
58466;SDS011;44255;49.244;7.726;2022-07-03T05:53:58;3.40;;;1.30;;
58466;SDS011;44255;49.244;7.726;2022-07-03T05:56:23;1.90;;;1.50;;
58466;SDS011;44255;49.244;7.726;2022-07-03T05:58:49;2.83;;;1.55;;
58466;SDS011;44255;49.244;7.726;2022-07-03T06:01:15;1.70;;;1.48;;
58466;SDS011;44255;49.244;7.726;2022-07-03T06:03:40;4.10;;;1.70;;
58466;SDS011;44255;49.244;7.726;2022-07-03T06:06:06;3.33;;;1.40;;
58466;SDS011;44255;49.244;7.726;2022-07-03T06:08:31;4.47;;;1.40;;
58466;SDS011;44255;49.244;7.726;2022-07-03T06:10:56;4.20;;;1.50;;
58466;SDS011;44255;49.244;7.726;2022-07-03T06:13:22;1.40;;;1.30;;
58466;SDS011;44255;49.244;7.726;2022-07-03T06:15:47;4.13;;;1.30;;
58466;SDS011;44255;49.244;7.726;2022-07-03T06:18:12;1.83;;;1.30;;
58466;SDS011;44255;49.244;7.726;2022-07-03T06:20:38;1.40;;;1.30;;
58466;SDS011;44255;49.244;7.726;2022-07-03T06:23:03;1.83;;;1.20;;
58466;SDS011;44255;49.244;7.726;2022-07-03T06:25:28;2.70;;;1.17;;
58466;SDS011;44255;49.244;7.726;2022-07-03T06:27:53;3.83;;;1.20;;
58466;SDS011;44255;49.244;7.726;2022-07-03T06:30:19;1.83;;;1.20;;
58466;SDS011;44255;49.244;7.726;2022-07-03T06:32:44;1.67;;;1.30;;
58466;SDS011;44255;49.244;7.726;2022-07-03T06:35:09;2.20;;;1.03;;
58466;SDS011;44255;49.244;7.726;2022-07-03T06:37:35;6.33;;;1.27;;
58466;SDS011;44255;49.244;7.726;2022-07-03T06:40:00;2.20;;;1.10;;
58466;SDS011;44255;49.244;7.726;2022-07-03T06:42:25;2.43;;;1.20;;
58466;SDS011;44255;49.244;7.726;2022-07-03T06:44:51;2.20;;;1.13;;
58466;SDS011;44255;49.244;7.726;2022-07-03T06:47:16;3.67;;;1.10;;
58466;SDS011;44255;49.244;7.726;2022-07-03T06:49:41;5.60;;;1.20;;
58466;SDS011;44255;49.244;7.726;2022-07-03T06:52:08;2.47;;;1.30;;
58466;SDS011;44255;49.244;7.726;2022-07-03T06:54:33;2.07;;;1.10;;
58466;SDS011;44255;49.244;7.726;2022-07-03T06:56:59;2.97;;;1.10;;
58466;SDS011;44255;49.244;7.726;2022-07-03T06:59:24;1.90;;;1.10;;
58466;SDS011;44255;49.244;7.726;2022-07-03T07:01:49;1.40;;;1.30;;
58466;SDS011;44255;49.244;7.726;2022-07-03T07:04:15;3.13;;;1.27;;
58466;SDS011;44255;49.244;7.726;2022-07-03T07:06:40;2.90;;;1.20;;
58466;SDS011;44255;49.244;7.726;2022-07-03T07:09:05;2.97;;;1.20;;
58466;SDS011;44255;49.244;7.726;2022-07-03T07:11:30;3.33;;;1.30;;
58466;SDS011;44255;49.244;7.726;2022-07-03T07:13:56;1.20;;;1.00;;
58466;SDS011;44255;49.244;7.726;2022-07-03T07:16:21;4.63;;;1.50;;
58466;SDS011;44255;49.244;7.726;2022-07-03T07:18:46;1.97;;;1.20;;
58466;SDS011;44255;49.244;7.726;2022-07-03T07:21:11;2.60;;;1.10;;
58466;SDS011;44255;49.244;7.726;2022-07-03T07:23:37;3.20;;;1.23;;
58466;SDS011;44255;49.244;7.726;2022-07-03T07:26:03;4.50;;;1.30;;
58466;SDS011;44255;49.244;7.726;2022-07-03T07:28:28;3.83;;;1.15;;
58466;SDS011;44255;49.244;7.726;2022-07-03T07:30:55;2.75;;;1.10;;
58466;SDS011;44255;49.244;7.726;2022-07-03T07:33:22;1.10;;;0.93;;
58466;SDS011;44255;49.244;7.726;2022-07-03T07:35:48;2.20;;;1.00;;
58466;SDS011;44255;49.244;7.726;2022-07-03T07:38:13;2.45;;;1.30;;
58466;SDS011;44255;49.244;7.726;2022-07-03T07:40:39;2.58;;;1.00;;
58466;SDS011;44255;49.244;7.726;2022-07-03T07:43:04;1.95;;;0.85;;
58466;SDS011;44255;49.244;7.726;2022-07-03T07:45:30;1.35;;;1.00;;
58466;SDS011;44255;49.244;7.726;2022-07-03T07:47:55;3.23;;;1.20;;
58466;SDS011;44255;49.244;7.726;2022-07-03T07:50:21;2.50;;;1.03;;
58466;SDS011;44255;49.244;7.726;2022-07-03T07:52:46;1.10;;;1.00;;
58466;SDS011;44255;49.244;7.726;2022-07-03T07:55:11;1.73;;;1.10;;
58466;SDS011;44255;49.244;7.726;2022-07-03T07:57:37;3.63;;;1.10;;
58466;SDS011;44255;49.244;7.726;2022-07-03T08:02:32;2.50;;;0.98;;
58466;SDS011;44255;49.244;7.726;2022-07-03T08:05:16;2.25;;;0.82;;
58466;SDS011;44255;49.244;7.726;2022-07-03T08:08:00;3.60;;;0.77;;
58466;SDS011;44255;49.244;7.726;2022-07-03T08:10:25;2.20;;;0.90;;
58466;SDS011;44255;49.244;7.726;2022-07-03T08:12:51;3.37;;;0.87;;
58466;SDS011;44255;49.244;7.726;2022-07-03T08:15:16;3.57;;;1.00;;
58466;SDS011;44255;49.244;7.726;2022-07-03T08:17:41;4.20;;;1.63;;
58466;SDS011;44255;49.244;7.726;2022-07-03T08:20:07;0.90;;;0.70;;
58466;SDS011;44255;49.244;7.726;2022-07-03T08:22:33;1.73;;;0.90;;
58466;SDS011;44255;49.244;7.726;2022-07-03T08:24:59;2.00;;;1.00;;
58466;SDS011;44255;49.244;7.726;2022-07-03T08:27:24;2.40;;;1.00;;
58466;SDS011;44255;49.244;7.726;2022-07-03T08:29:49;1.37;;;0.80;;
58466;SDS011;44255;49.244;7.726;2022-07-03T08:32:15;4.60;;;0.93;;
58466;SDS011;44255;49.244;7.726;2022-07-03T08:34:40;6.10;;;1.17;;
58466;SDS011;44255;49.244;7.726;2022-07-03T08:37:05;1.70;;;0.80;;
58466;SDS011;44255;49.244;7.726;2022-07-03T08:39:30;5.67;;;0.80;;
58466;SDS011;44255;49.244;7.726;2022-07-03T08:41:56;2.80;;;0.80;;
58466;SDS011;44255;49.244;7.726;2022-07-03T08:46:49;1.13;;;0.60;;
58466;SDS011;44255;49.244;7.726;2022-07-03T08:49:16;1.80;;;0.90;;
58466;SDS011;44255;49.244;7.726;2022-07-03T08:51:42;3.60;;;1.08;;
58466;SDS011;44255;49.244;7.726;2022-07-03T08:54:09;3.33;;;0.90;;
58466;SDS011;44255;49.244;7.726;2022-07-03T08:56:35;3.43;;;0.97;;
58466;SDS011;44255;49.244;7.726;2022-07-03T08:59:00;4.23;;;0.70;;
58466;SDS011;44255;49.244;7.726;2022-07-03T09:01:28;1.95;;;0.60;;
58466;SDS011;44255;49.244;7.726;2022-07-03T09:03:54;1.80;;;0.60;;
58466;SDS011;44255;49.244;7.726;2022-07-03T09:06:20;2.90;;;0.80;;
58466;SDS011;44255;49.244;7.726;2022-07-03T09:08:46;1.25;;;0.68;;
58466;SDS011;44255;49.244;7.726;2022-07-03T09:11:11;4.43;;;0.50;;
58466;SDS011;44255;49.244;7.726;2022-07-03T09:13:37;0.93;;;0.60;;
58466;SDS011;44255;49.244;7.726;2022-07-03T09:16:02;3.57;;;0.53;;
58466;SDS011;44255;49.244;7.726;2022-07-03T09:18:43;2.50;;;0.60;;
58466;SDS011;44255;49.244;7.726;2022-07-03T09:21:10;2.05;;;0.70;;
58466;SDS011;44255;49.244;7.726;2022-07-03T09:23:36;2.67;;;0.75;;
58466;SDS011;44255;49.244;7.726;2022-07-03T09:26:05;7.07;;;0.73;;
58466;SDS011;44255;49.244;7.726;2022-07-03T09:31:10;3.00;;;0.77;;
58466;SDS011;44255;49.244;7.726;2022-07-03T09:33:47;6.80;;;0.57;;
58466;SDS011;44255;49.244;7.726;2022-07-03T09:36:51;1.42;;;0.50;;
58466;SDS011;44255;49.244;7.726;2022-07-03T09:41:52;3.42;;;0.70;;
58466;SDS011;44255;49.244;7.726;2022-07-03T09:44:40;4.25;;;0.93;;
58466;SDS011;44255;49.244;7.726;2022-07-03T09:50:08;1.27;;;0.60;;
58466;SDS011;44255;49.244;7.726;2022-07-03T09:52:36;1.17;;;0.55;;
58466;SDS011;44255;49.244;7.726;2022-07-03T09:57:31;3.00;;;0.60;;
58466;SDS011;44255;49.244;7.726;2022-07-03T10:00:09;1.33;;;0.60;;
58466;SDS011;44255;49.244;7.726;2022-07-03T10:05:46;3.65;;;0.60;;
58466;SDS011;44255;49.244;7.726;2022-07-03T10:08:12;1.92;;;0.50;;
58466;SDS011;44255;49.244;7.726;2022-07-03T10:10:42;1.60;;;0.47;;
58466;SDS011;44255;49.244;7.726;2022-07-03T10:13:08;1.60;;;0.50;;
58466;SDS011;44255;49.244;7.726;2022-07-03T10:15:35;0.85;;;0.60;;
58466;SDS011;44255;49.244;7.726;2022-07-03T10:18:03;3.22;;;0.60;;
58466;SDS011;44255;49.244;7.726;2022-07-03T10:20:34;2.25;;;0.50;;
58466;SDS011;44255;49.244;7.726;2022-07-03T10:23:00;1.70;;;0.60;;
58466;SDS011;44255;49.244;7.726;2022-07-03T10:25:27;1.80;;;0.60;;
58466;SDS011;44255;49.244;7.726;2022-07-03T10:27:55;1.15;;;0.50;;
58466;SDS011;44255;49.244;7.726;2022-07-03T10:30:21;3.60;;;0.70;;
58466;SDS011;44255;49.244;7.726;2022-07-03T10:32:49;1.35;;;0.70;;
58466;SDS011;44255;49.244;7.726;2022-07-03T10:35:32;1.98;;;0.60;;
58466;SDS011;44255;49.244;7.726;2022-07-03T10:43:46;1.10;;;0.43;;
58466;SDS011;44255;49.244;7.726;2022-07-03T10:46:32;2.15;;;0.50;;
58466;SDS011;44255;49.244;7.726;2022-07-03T10:51:29;1.95;;;0.98;;
58466;SDS011;44255;49.244;7.726;2022-07-03T11:07:29;1.77;;;0.60;;
58466;SDS011;44255;49.244;7.726;2022-07-03T11:18:07;2.88;;;1.60;;
58466;SDS011;44255;49.244;7.726;2022-07-03T11:20:33;2.78;;;0.80;;
58466;SDS011;44255;49.244;7.726;2022-07-03T11:22:59;7.13;;;2.67;;
58466;SDS011;44255;49.244;7.726;2022-07-03T11:25:42;2.63;;;1.00;;
58466;SDS011;44255;49.244;7.726;2022-07-03T11:38:49;2.53;;;1.30;;
58466;SDS011;44255;49.244;7.726;2022-07-03T11:44:02;1.20;;;0.70;;
58466;SDS011;44255;49.244;7.726;2022-07-03T11:46:31;0.68;;;0.47;;
58466;SDS011;44255;49.244;7.726;2022-07-03T11:49:15;3.38;;;0.70;;
58466;SDS011;44255;49.244;7.726;2022-07-03T11:51:54;3.50;;;0.40;;
58466;SDS011;44255;49.244;7.726;2022-07-03T11:54:21;1.70;;;0.47;;
58466;SDS011;44255;49.244;7.726;2022-07-03T11:56:46;0.98;;;0.30;;
58466;SDS011;44255;49.244;7.726;2022-07-03T12:01:38;0.77;;;0.50;;
58466;SDS011;44255;49.244;7.726;2022-07-03T12:12:07;1.70;;;0.40;;
58466;SDS011;44255;49.244;7.726;2022-07-03T12:14:34;1.85;;;0.50;;
58466;SDS011;44255;49.244;7.726;2022-07-03T12:17:10;1.30;;;0.50;;
58466;SDS011;44255;49.244;7.726;2022-07-03T12:22:24;3.15;;;0.60;;
58466;SDS011;44255;49.244;7.726;2022-07-03T12:24:58;3.17;;;0.40;;
58466;SDS011;44255;49.244;7.726;2022-07-03T12:27:26;0.80;;;0.30;;
58466;SDS011;44255;49.244;7.726;2022-07-03T12:32:17;2.97;;;0.60;;
58466;SDS011;44255;49.244;7.726;2022-07-03T12:37:08;3.10;;;0.68;;
58466;SDS011;44255;49.244;7.726;2022-07-03T12:39:40;1.77;;;0.90;;
58466;SDS011;44255;49.244;7.726;2022-07-03T12:42:16;2.67;;;0.45;;
58466;SDS011;44255;49.244;7.726;2022-07-03T12:44:58;1.40;;;0.40;;
58466;SDS011;44255;49.244;7.726;2022-07-03T12:47:25;0.75;;;0.47;;
58466;SDS011;44255;49.244;7.726;2022-07-03T12:49:58;0.40;;;0.32;;
58466;SDS011;44255;49.244;7.726;2022-07-03T12:52:26;1.88;;;0.30;;
58466;SDS011;44255;49.244;7.726;2022-07-03T12:54:52;4.75;;;0.93;;
58466;SDS011;44255;49.244;7.726;2022-07-03T12:57:18;1.00;;;0.60;;
58466;SDS011;44255;49.244;7.726;2022-07-03T13:02:27;5.63;;;0.70;;
58466;SDS011;44255;49.244;7.726;2022-07-03T13:04:53;2.55;;;0.45;;
58466;SDS011;44255;49.244;7.726;2022-07-03T13:07:18;4.25;;;0.90;;
58466;SDS011;44255;49.244;7.726;2022-07-03T13:09:51;3.60;;;0.80;;
58466;SDS011;44255;49.244;7.726;2022-07-03T13:12:22;2.05;;;0.40;;
58466;SDS011;44255;49.244;7.726;2022-07-03T13:14:59;1.35;;;0.32;;
58466;SDS011;44255;49.244;7.726;2022-07-03T13:20:16;3.03;;;0.50;;
58466;SDS011;44255;49.244;7.726;2022-07-03T13:22:41;5.43;;;0.50;;
58466;SDS011;44255;49.244;7.726;2022-07-03T13:25:07;1.23;;;0.60;;
58466;SDS011;44255;49.244;7.726;2022-07-03T13:27:32;0.73;;;0.30;;
58466;SDS011;44255;49.244;7.726;2022-07-03T13:29:57;0.87;;;0.40;;
58466;SDS011;44255;49.244;7.726;2022-07-03T13:32:23;3.93;;;0.50;;
58466;SDS011;44255;49.244;7.726;2022-07-03T13:34:48;0.70;;;0.50;;
58466;SDS011;44255;49.244;7.726;2022-07-03T13:37:13;1.53;;;0.60;;
58466;SDS011;44255;49.244;7.726;2022-07-03T13:42:04;3.07;;;0.57;;
58466;SDS011;44255;49.244;7.726;2022-07-03T13:44:30;1.17;;;0.50;;
58466;SDS011;44255;49.244;7.726;2022-07-03T13:46:55;1.08;;;0.63;;
58466;SDS011;44255;49.244;7.726;2022-07-03T13:49:21;2.25;;;0.70;;
58466;SDS011;44255;49.244;7.726;2022-07-03T13:51:46;1.93;;;0.60;;
58466;SDS011;44255;49.244;7.726;2022-07-03T13:56:37;2.33;;;0.70;;
58466;SDS011;44255;49.244;7.726;2022-07-03T14:01:27;1.20;;;0.60;;
58466;SDS011;44255;49.244;7.726;2022-07-03T14:03:52;0.60;;;0.47;;
58466;SDS011;44255;49.244;7.726;2022-07-03T14:06:18;3.23;;;1.13;;
58466;SDS011;44255;49.244;7.726;2022-07-03T14:08:43;4.47;;;0.80;;
58466;SDS011;44255;49.244;7.726;2022-07-03T14:13:33;4.63;;;1.60;;
58466;SDS011;44255;49.244;7.726;2022-07-03T14:15:59;1.03;;;0.50;;
58466;SDS011;44255;49.244;7.726;2022-07-03T14:18:25;4.05;;;1.63;;
58466;SDS011;44255;49.244;7.726;2022-07-03T14:20:50;7.53;;;1.48;;
58466;SDS011;44255;49.244;7.726;2022-07-03T14:23:16;3.30;;;0.90;;
58466;SDS011;44255;49.244;7.726;2022-07-03T14:25:41;3.45;;;0.93;;
58466;SDS011;44255;49.244;7.726;2022-07-03T14:28:07;1.33;;;0.90;;
58466;SDS011;44255;49.244;7.726;2022-07-03T14:30:51;2.15;;;0.70;;
58466;SDS011;44255;49.244;7.726;2022-07-03T14:33:34;1.10;;;0.50;;
58466;SDS011;44255;49.244;7.726;2022-07-03T14:36:00;3.03;;;0.70;;
58466;SDS011;44255;49.244;7.726;2022-07-03T14:38:25;3.03;;;0.50;;
58466;SDS011;44255;49.244;7.726;2022-07-03T14:40:50;3.93;;;0.50;;
58466;SDS011;44255;49.244;7.726;2022-07-03T14:43:16;3.67;;;0.73;;
58466;SDS011;44255;49.244;7.726;2022-07-03T14:48:07;2.17;;;0.50;;
58466;SDS011;44255;49.244;7.726;2022-07-03T14:50:33;2.15;;;0.80;;
58466;SDS011;44255;49.244;7.726;2022-07-03T14:52:59;1.67;;;0.70;;
58466;SDS011;44255;49.244;7.726;2022-07-03T14:55:25;2.28;;;0.47;;
58466;SDS011;44255;49.244;7.726;2022-07-03T14:58:19;1.25;;;0.40;;
58466;SDS011;44255;49.244;7.726;2022-07-03T15:00:49;1.67;;;0.70;;
58466;SDS011;44255;49.244;7.726;2022-07-03T15:03:26;2.30;;;0.50;;
58466;SDS011;44255;49.244;7.726;2022-07-03T15:05:56;1.33;;;0.50;;
58466;SDS011;44255;49.244;7.726;2022-07-03T15:10:55;1.20;;;0.50;;
58466;SDS011;44255;49.244;7.726;2022-07-03T15:13:27;1.27;;;0.40;;
58466;SDS011;44255;49.244;7.726;2022-07-03T15:15:52;1.52;;;0.55;;
58466;SDS011;44255;49.244;7.726;2022-07-03T15:18:18;2.38;;;0.60;;
58466;SDS011;44255;49.244;7.726;2022-07-03T15:20:49;2.88;;;0.60;;
58466;SDS011;44255;49.244;7.726;2022-07-03T15:23:15;2.75;;;0.68;;
58466;SDS011;44255;49.244;7.726;2022-07-03T15:25:42;3.70;;;0.60;;
58466;SDS011;44255;49.244;7.726;2022-07-03T15:28:09;1.55;;;0.50;;
58466;SDS011;44255;49.244;7.726;2022-07-03T15:30:35;1.73;;;0.75;;
58466;SDS011;44255;49.244;7.726;2022-07-03T15:33:03;1.95;;;0.50;;
58466;SDS011;44255;49.244;7.726;2022-07-03T15:35:28;3.80;;;0.75;;
58466;SDS011;44255;49.244;7.726;2022-07-03T15:40:34;2.80;;;0.50;;
58466;SDS011;44255;49.244;7.726;2022-07-03T15:49:18;1.77;;;0.85;;
58466;SDS011;44255;49.244;7.726;2022-07-03T15:51:55;2.90;;;0.60;;
58466;SDS011;44255;49.244;7.726;2022-07-03T15:59:52;1.58;;;0.40;;
58466;SDS011;44255;49.244;7.726;2022-07-03T16:02:25;2.05;;;0.70;;
58466;SDS011;44255;49.244;7.726;2022-07-03T16:05:10;2.38;;;0.60;;
58466;SDS011;44255;49.244;7.726;2022-07-03T16:07:39;3.63;;;0.50;;
58466;SDS011;44255;49.244;7.726;2022-07-03T16:10:05;3.13;;;0.60;;
58466;SDS011;44255;49.244;7.726;2022-07-03T16:12:33;5.25;;;0.47;;
58466;SDS011;44255;49.244;7.726;2022-07-03T16:14:59;2.22;;;0.43;;
58466;SDS011;44255;49.244;7.726;2022-07-03T16:17:25;1.58;;;0.73;;
58466;SDS011;44255;49.244;7.726;2022-07-03T16:19:51;1.75;;;0.50;;
58466;SDS011;44255;49.244;7.726;2022-07-03T16:22:17;2.35;;;0.63;;
58466;SDS011;44255;49.244;7.726;2022-07-03T16:24:44;1.33;;;0.40;;
58466;SDS011;44255;49.244;7.726;2022-07-03T16:27:14;0.50;;;0.40;;
58466;SDS011;44255;49.244;7.726;2022-07-03T16:29:44;2.03;;;0.63;;
58466;SDS011;44255;49.244;7.726;2022-07-03T16:32:11;1.27;;;0.40;;
58466;SDS011;44255;49.244;7.726;2022-07-03T16:37:43;3.85;;;0.93;;
58466;SDS011;44255;49.244;7.726;2022-07-03T16:40:13;1.45;;;0.60;;
58466;SDS011;44255;49.244;7.726;2022-07-03T16:42:41;3.95;;;0.60;;
58466;SDS011;44255;49.244;7.726;2022-07-03T16:45:12;1.42;;;0.60;;
58466;SDS011;44255;49.244;7.726;2022-07-03T16:47:43;1.83;;;0.70;;
58466;SDS011;44255;49.244;7.726;2022-07-03T16:50:14;1.10;;;0.40;;
58466;SDS011;44255;49.244;7.726;2022-07-03T16:52:47;1.73;;;0.40;;
58466;SDS011;44255;49.244;7.726;2022-07-03T16:55:17;2.95;;;0.50;;
58466;SDS011;44255;49.244;7.726;2022-07-03T16:57:45;3.47;;;0.50;;
58466;SDS011;44255;49.244;7.726;2022-07-03T17:00:21;1.55;;;0.50;;
58466;SDS011;44255;49.244;7.726;2022-07-03T17:02:49;2.67;;;0.60;;
58466;SDS011;44255;49.244;7.726;2022-07-03T17:05:15;1.70;;;0.65;;
58466;SDS011;44255;49.244;7.726;2022-07-03T17:07:44;3.53;;;0.63;;
58466;SDS011;44255;49.244;7.726;2022-07-03T17:10:11;1.30;;;0.50;;
58466;SDS011;44255;49.244;7.726;2022-07-03T17:12:38;4.80;;;0.50;;
58466;SDS011;44255;49.244;7.726;2022-07-03T17:15:07;3.17;;;0.60;;
58466;SDS011;44255;49.244;7.726;2022-07-03T17:19:59;2.15;;;0.63;;
58466;SDS011;44255;49.244;7.726;2022-07-03T17:22:36;2.58;;;1.02;;
58466;SDS011;44255;49.244;7.726;2022-07-03T17:25:04;3.50;;;0.60;;
58466;SDS011;44255;49.244;7.726;2022-07-03T17:30:14;9.73;;;3.03;;
58466;SDS011;44255;49.244;7.726;2022-07-03T17:32:41;15.18;;;3.95;;
58466;SDS011;44255;49.244;7.726;2022-07-03T17:35:18;10.50;;;3.45;;
58466;SDS011;44255;49.244;7.726;2022-07-03T17:37:49;17.88;;;5.90;;
58466;SDS011;44255;49.244;7.726;2022-07-03T17:40:16;10.85;;;3.17;;
58466;SDS011;44255;49.244;7.726;2022-07-03T17:42:43;1.92;;;0.80;;
58466;SDS011;44255;49.244;7.726;2022-07-03T17:45:10;4.50;;;2.30;;
58466;SDS011;44255;49.244;7.726;2022-07-03T17:47:36;6.13;;;2.83;;
58466;SDS011;44255;49.244;7.726;2022-07-03T17:50:03;3.00;;;1.00;;
58466;SDS011;44255;49.244;7.726;2022-07-03T17:52:28;3.63;;;1.10;;
58466;SDS011;44255;49.244;7.726;2022-07-03T17:54:57;3.50;;;1.40;;
58466;SDS011;44255;49.244;7.726;2022-07-03T17:57:25;4.60;;;1.70;;
58466;SDS011;44255;49.244;7.726;2022-07-03T18:00:00;6.57;;;1.75;;
58466;SDS011;44255;49.244;7.726;2022-07-03T18:02:28;5.18;;;2.00;;
58466;SDS011;44255;49.244;7.726;2022-07-03T18:04:54;5.97;;;2.03;;
58466;SDS011;44255;49.244;7.726;2022-07-03T18:07:25;5.05;;;2.00;;
58466;SDS011;44255;49.244;7.726;2022-07-03T18:10:00;6.22;;;1.20;;
58466;SDS011;44255;49.244;7.726;2022-07-03T18:12:30;2.17;;;0.77;;
58466;SDS011;44255;49.244;7.726;2022-07-03T18:15:23;2.33;;;0.47;;
58466;SDS011;44255;49.244;7.726;2022-07-03T18:17:56;2.25;;;0.95;;
58466;SDS011;44255;49.244;7.726;2022-07-03T18:20:29;1.77;;;0.82;;
58466;SDS011;44255;49.244;7.726;2022-07-03T18:22:57;2.10;;;0.80;;
58466;SDS011;44255;49.244;7.726;2022-07-03T18:25:24;3.17;;;0.60;;
58466;SDS011;44255;49.244;7.726;2022-07-03T18:27:53;2.75;;;0.73;;
58466;SDS011;44255;49.244;7.726;2022-07-03T18:30:18;2.05;;;0.70;;
58466;SDS011;44255;49.244;7.726;2022-07-03T18:32:46;2.67;;;0.70;;
58466;SDS011;44255;49.244;7.726;2022-07-03T18:35:13;2.25;;;0.50;;
58466;SDS011;44255;49.244;7.726;2022-07-03T18:37:40;2.72;;;0.70;;
58466;SDS011;44255;49.244;7.726;2022-07-03T18:40:09;2.35;;;0.80;;
58466;SDS011;44255;49.244;7.726;2022-07-03T18:42:34;4.97;;;0.98;;
58466;SDS011;44255;49.244;7.726;2022-07-03T18:45:01;1.92;;;0.70;;
58466;SDS011;44255;49.244;7.726;2022-07-03T18:47:28;10.80;;;2.08;;
58466;SDS011;44255;49.244;7.726;2022-07-03T18:49:53;5.17;;;1.67;;
58466;SDS011;44255;49.244;7.726;2022-07-03T18:52:20;2.13;;;0.93;;
58466;SDS011;44255;49.244;7.726;2022-07-03T18:57:48;6.05;;;1.20;;
58466;SDS011;44255;49.244;7.726;2022-07-03T19:00:17;2.17;;;1.20;;
58466;SDS011;44255;49.244;7.726;2022-07-03T19:02:56;2.83;;;1.38;;
58466;SDS011;44255;49.244;7.726;2022-07-03T19:05:25;3.97;;;0.90;;
58466;SDS011;44255;49.244;7.726;2022-07-03T19:08:04;2.90;;;1.08;;
58466;SDS011;44255;49.244;7.726;2022-07-03T19:10:35;2.03;;;0.82;;
58466;SDS011;44255;49.244;7.726;2022-07-03T19:13:09;3.50;;;0.90;;
58466;SDS011;44255;49.244;7.726;2022-07-03T19:15:36;5.82;;;1.20;;
58466;SDS011;44255;49.244;7.726;2022-07-03T19:18:04;3.70;;;1.10;;
58466;SDS011;44255;49.244;7.726;2022-07-03T19:20:30;9.07;;;1.40;;
58466;SDS011;44255;49.244;7.726;2022-07-03T19:22:57;3.83;;;1.47;;
58466;SDS011;44255;49.244;7.726;2022-07-03T19:25:23;3.92;;;1.60;;
58466;SDS011;44255;49.244;7.726;2022-07-03T19:27:49;6.80;;;1.17;;
58466;SDS011;44255;49.244;7.726;2022-07-03T19:30:15;5.50;;;1.45;;
58466;SDS011;44255;49.244;7.726;2022-07-03T19:32:42;5.15;;;2.10;;
58466;SDS011;44255;49.244;7.726;2022-07-03T19:35:12;5.60;;;1.80;;
58466;SDS011;44255;49.244;7.726;2022-07-03T19:37:38;5.05;;;1.90;;
58466;SDS011;44255;49.244;7.726;2022-07-03T19:40:05;5.47;;;1.63;;
58466;SDS011;44255;49.244;7.726;2022-07-03T19:42:31;6.50;;;2.33;;
58466;SDS011;44255;49.244;7.726;2022-07-03T19:44:56;11.30;;;4.60;;
58466;SDS011;44255;49.244;7.726;2022-07-03T19:47:22;11.10;;;4.90;;
58466;SDS011;44255;49.244;7.726;2022-07-03T19:49:47;11.80;;;5.32;;
58466;SDS011;44255;49.244;7.726;2022-07-03T19:52:13;5.30;;;2.23;;
58466;SDS011;44255;49.244;7.726;2022-07-03T19:54:38;6.20;;;1.60;;
58466;SDS011;44255;49.244;7.726;2022-07-03T19:57:04;4.65;;;1.35;;
58466;SDS011;44255;49.244;7.726;2022-07-03T19:59:29;6.82;;;0.93;;
58466;SDS011;44255;49.244;7.726;2022-07-03T20:01:55;4.03;;;1.00;;
58466;SDS011;44255;49.244;7.726;2022-07-03T20:04:20;4.53;;;0.95;;
58466;SDS011;44255;49.244;7.726;2022-07-03T20:06:46;4.20;;;1.10;;
58466;SDS011;44255;49.244;7.726;2022-07-03T20:11:39;4.32;;;0.90;;
58466;SDS011;44255;49.244;7.726;2022-07-03T20:14:05;3.05;;;1.35;;
58466;SDS011;44255;49.244;7.726;2022-07-03T20:16:30;2.23;;;0.97;;
58466;SDS011;44255;49.244;7.726;2022-07-03T20:18:55;6.80;;;1.53;;
58466;SDS011;44255;49.244;7.726;2022-07-03T20:21:21;5.47;;;1.10;;
58466;SDS011;44255;49.244;7.726;2022-07-03T20:23:46;7.60;;;1.00;;
58466;SDS011;44255;49.244;7.726;2022-07-03T20:26:30;7.65;;;2.13;;
58466;SDS011;44255;49.244;7.726;2022-07-03T20:28:55;8.30;;;2.60;;
58466;SDS011;44255;49.244;7.726;2022-07-03T20:31:20;12.23;;;5.23;;
58466;SDS011;44255;49.244;7.726;2022-07-03T20:33:46;9.30;;;4.10;;